Time;durP1;ratioP1;P1;durP2;ratioP2;P2;SDS_P1;SDS_P2;PMS_P1;PMS_P2;Temp;Humidity;BMP_temperature;BMP_pressure;BME280_temperature;BME280_humidity;BME280_pressure;Samples;Min_cycle;Max_cycle;Signal;HPM_P1;HPM_P2
2023/06/20 00:00:20;;;;;;;;;;;;;;;19.77;68.38;101275.43;107073;1260;62225;-85
2023/06/20 00:03:06;;;;;;;;;;;;;;;19.79;68.65;101279.35;107045;1262;125373;-82
2023/06/20 00:05:33;;;;;;;;;;;;;;;19.78;68.80;101282.54;107301;1260;73145;-82
2023/06/20 00:08:00;;;;;;;;;;;;;;;19.77;68.95;101288.95;107353;1260;125950;-82
2023/06/20 00:10:26;;;;;;;;;;;;;;;19.78;69.13;101292.35;107469;1261;62216;-83
2023/06/20 00:12:53;;;;;;;;;;;;;;;19.79;69.38;101294.11;107494;1260;60412;-83
2023/06/20 00:15:25;;;;;;;;;;;;;;;19.80;69.38;101295.53;107719;1263;62931;-82
2023/06/20 00:17:52;;;;;;;;;;;;;;;19.81;69.38;101296.95;107603;1262;72804;-82
2023/06/20 00:20:20;;;;;;;;;;;;;;;19.78;69.54;101293.23;107426;1261;125107;-82
2023/06/20 00:22:50;;;;;;;;;;;;;;;19.76;69.60;101293.77;107334;1260;61845;-82
2023/06/20 00:25:17;;;;;;;;;;;;;;;19.76;69.74;101292.71;107193;1260;125607;-82
2023/06/20 00:27:43;;;;;;;;;;;;;;;19.75;69.89;101286.48;107341;1261;61055;-82
2023/06/20 00:30:10;;;;;;;;;;;;;;;19.73;70.01;101280.98;107170;1261;60445;-82
2023/06/20 00:32:36;;;;;;;;;;;;;;;19.73;70.12;101280.80;107271;1260;125665;-82
2023/06/20 00:35:02;;;;;;;;;;;;;;;19.73;70.23;101284.36;107328;1260;61771;-83
2023/06/20 00:37:28;;;;;;;;;;;;;;;19.73;70.28;101283.46;108457;1260;126059;-83
2023/06/20 00:39:55;;;;;;;;;;;;;;;19.73;70.32;101283.12;108650;1261;59917;-83
2023/06/20 00:42:23;;;;;;;;;;;;;;;19.71;70.44;101284.87;108456;1260;60126;-82
2023/06/20 00:44:50;;;;;;;;;;;;;;;19.70;70.53;101290.39;108327;1260;125549;-82
2023/06/20 00:47:16;;;;;;;;;;;;;;;19.69;70.55;101286.30;108623;1260;60202;-82
2023/06/20 00:49:42;;;;;;;;;;;;;;;19.67;70.58;101288.26;108590;1260;125102;-82
2023/06/20 00:52:09;;;;;;;;;;;;;;;19.63;70.60;101286.14;108561;1260;60158;-82
2023/06/20 00:54:35;;;;;;;;;;;;;;;19.59;70.66;101286.86;108647;1261;59958;-83
2023/06/20 00:57:01;;;;;;;;;;;;;;;19.54;70.59;101283.33;108311;1260;125806;-82
2023/06/20 00:59:28;;;;;;;;;;;;;;;19.48;70.75;101282.80;108571;1260;60318;-83
2023/06/20 01:01:54;;;;;;;;;;;;;;;19.43;70.88;101287.27;108125;1260;125745;-83
2023/06/20 01:04:20;;;;;;;;;;;;;;;19.38;71.03;101282.49;107472;1260;61891;-82
2023/06/20 01:07:00;;;;;;;;;;;;;;;19.36;71.16;101286.77;107448;1260;60179;-82
2023/06/20 01:09:44;;;;;;;;;;;;;;;19.32;71.19;101286.59;107346;1260;61934;-82
2023/06/20 01:12:17;;;;;;;;;;;;;;;19.30;71.32;101290.52;107634;1263;60228;-82
2023/06/20 01:14:43;;;;;;;;;;;;;;;19.29;71.42;101291.23;107357;1261;125902;-81
2023/06/20 01:17:10;;;;;;;;;;;;;;;19.29;71.52;101286.79;107541;1260;62710;-82
2023/06/20 01:19:36;;;;;;;;;;;;;;;19.30;71.65;101283.58;107224;1260;138489;-81
2023/06/20 01:22:04;;;;;;;;;;;;;;;19.31;71.67;101284.81;107251;1260;60090;-82
2023/06/20 01:24:33;;;;;;;;;;;;;;;19.32;71.62;101281.80;107302;1261;61534;-82
2023/06/20 01:26:59;;;;;;;;;;;;;;;19.31;71.67;101280.72;107466;1260;125410;-82
2023/06/20 01:29:32;;;;;;;;;;;;;;;19.30;71.60;101282.69;107529;1260;61287;-82
2023/06/20 01:32:01;;;;;;;;;;;;;;;19.29;71.62;101283.56;107311;1264;125470;-82
2023/06/20 01:34:28;;;;;;;;;;;;;;;19.28;71.60;101281.64;107412;1260;60762;-82
2023/06/20 01:36:58;;;;;;;;;;;;;;;19.27;71.64;101281.45;107460;1260;60184;-82
2023/06/20 01:39:44;;;;;;;;;;;;;;;19.26;71.69;101284.11;107230;1261;73799;-82
2023/06/20 01:42:10;;;;;;;;;;;;;;;19.25;71.75;101281.27;107243;1261;67097;-82
2023/06/20 01:44:37;;;;;;;;;;;;;;;19.25;71.68;101279.14;107309;1260;125875;-82
2023/06/20 01:47:03;;;;;;;;;;;;;;;19.23;71.69;101278.42;107289;1260;60393;-82
2023/06/20 01:49:29;;;;;;;;;;;;;;;19.25;71.85;101281.45;107332;1260;125440;-82
2023/06/20 01:51:56;;;;;;;;;;;;;;;19.25;71.92;101276.29;107339;1263;60501;-82
2023/06/20 01:54:23;;;;;;;;;;;;;;;19.26;72.05;101277.17;107288;1260;60981;-83
2023/06/20 01:56:50;;;;;;;;;;;;;;;19.27;72.10;101277.90;107194;1260;125817;-83
2023/06/20 01:59:16;;;;;;;;;;;;;;;19.27;72.22;101275.58;107172;1262;62862;-82
2023/06/20 02:01:43;;;;;;;;;;;;;;;19.28;72.34;101279.14;107078;1260;126046;-82
2023/06/20 02:04:09;;;;;;;;;;;;;;;19.28;72.35;101279.50;107019;1260;75557;-83
2023/06/20 02:06:36;;;;;;;;;;;;;;;19.26;72.43;101279.66;107174;1260;60417;-82
2023/06/20 02:09:04;;;;;;;;;;;;;;;19.26;72.56;101277.17;107026;1260;125440;-82
2023/06/20 02:11:30;;;;;;;;;;;;;;;19.27;72.58;101279.13;107281;1260;60445;-82
2023/06/20 02:13:56;;;;;;;;;;;;;;;19.27;72.66;101280.55;107216;1260;125908;-83
2023/06/20 02:16:24;;;;;;;;;;;;;;;19.28;72.64;101283.59;107191;1260;61571;-83
2023/06/20 02:18:51;;;;;;;;;;;;;;;19.28;72.69;101283.21;106979;1260;66088;-83
2023/06/20 02:21:19;;;;;;;;;;;;;;;19.31;72.68;101285.17;107054;1261;125613;-82
2023/06/20 02:23:45;;;;;;;;;;;;;;;19.33;72.68;101283.58;107165;1260;61786;-82
2023/06/20 02:26:11;;;;;;;;;;;;;;;19.35;72.62;101278.05;107194;1260;125705;-84
2023/06/20 02:28:41;;;;;;;;;;;;;;;19.35;72.59;101273.95;107539;1262;60533;-82
2023/06/20 02:31:08;;;;;;;;;;;;;;;19.36;72.62;101273.23;107358;1260;125311;-82
2023/06/20 02:33:35;;;;;;;;;;;;;;;19.38;72.74;101277.86;107618;1266;72709;-83
2023/06/20 02:36:01;;;;;;;;;;;;;;;19.41;72.78;101277.30;107365;1261;60473;-82
2023/06/20 02:38:27;;;;;;;;;;;;;;;19.45;72.88;101274.63;106945;1260;125997;-82
2023/06/20 02:40:54;;;;;;;;;;;;;;;19.49;72.86;101277.47;107059;1260;62010;-83
2023/06/20 02:43:20;;;;;;;;;;;;;;;19.54;72.94;101275.84;106789;1260;125324;-83
2023/06/20 02:45:47;;;;;;;;;;;;;;;19.61;72.92;101277.60;107105;1260;61876;-83
2023/06/20 02:48:17;;;;;;;;;;;;;;;19.68;73.01;101274.19;107602;1260;60346;-83
2023/06/20 02:50:53;;;;;;;;;;;;;;;19.73;73.06;101275.61;107259;1262;126437;-84
2023/06/20 02:53:20;;;;;;;;;;;;;;;19.78;72.93;101274.53;106943;1260;75537;-83
2023/06/20 02:55:50;;;;;;;;;;;;;;;19.81;72.86;101274.16;106997;1260;125576;-83
2023/06/20 02:58:16;;;;;;;;;;;;;;;19.84;72.76;101276.28;107057;1261;71275;-84
2023/06/20 03:00:49;;;;;;;;;;;;;;;19.86;72.65;101276.45;106941;1260;62145;-84
2023/06/20 03:03:22;;;;;;;;;;;;;;;19.87;72.57;101277.70;106992;1261;125413;-83
2023/06/20 03:05:51;;;;;;;;;;;;;;;19.87;72.66;101284.11;107131;1260;73573;-83
2023/06/20 03:08:17;;;;;;;;;;;;;;;19.89;72.62;101283.21;106996;1260;125889;-83
2023/06/20 03:10:44;;;;;;;;;;;;;;;19.91;72.64;101287.29;107194;1261;72753;-83
2023/06/20 03:13:14;;;;;;;;;;;;;;;19.92;72.56;101289.96;106825;1262;125885;-83
2023/06/20 03:15:40;;;;;;;;;;;;;;;19.94;72.60;101289.23;107104;1261;61273;-83
2023/06/20 03:18:07;;;;;;;;;;;;;;;19.98;72.55;101284.77;107308;1260;74744;-81
2023/06/20 03:20:37;;;;;;;;;;;;;;;20.00;72.47;101284.04;107037;1260;125923;-82
2023/06/20 03:23:03;;;;;;;;;;;;;;;20.04;72.36;101286.16;107161;1261;73285;-82
2023/06/20 03:25:29;;;;;;;;;;;;;;;20.07;72.35;101286.86;107206;1260;125550;-81
2023/06/20 03:27:55;;;;;;;;;;;;;;;20.10;72.23;101284.88;107299;1260;60774;-82
2023/06/20 03:30:22;;;;;;;;;;;;;;;20.13;72.11;101285.40;107148;1260;60525;-83
2023/06/20 03:32:48;;;;;;;;;;;;;;;20.16;71.96;101288.05;107046;1260;126031;-83
2023/06/20 03:35:14;;;;;;;;;;;;;;;20.22;71.94;101290.86;107305;1261;60387;-82
2023/06/20 03:37:40;;;;;;;;;;;;;;;20.31;72.01;101290.98;107280;1260;126008;-83
2023/06/20 03:40:09;;;;;;;;;;;;;;;20.39;71.91;101292.71;107263;1260;62842;-83
2023/06/20 03:42:36;;;;;;;;;;;;;;;20.47;71.76;101296.59;107297;1262;74299;-83
2023/06/20 03:45:02;;;;;;;;;;;;;;;20.49;71.59;101298.35;107026;1260;125955;-83
2023/06/20 03:47:29;;;;;;;;;;;;;;;20.50;71.48;101296.02;107206;1260;72615;-83
2023/06/20 03:49:56;;;;;;;;;;;;;;;20.51;71.34;101293.33;107078;1260;125758;-83
2023/06/20 03:52:28;;;;;;;;;;;;;;;20.53;71.19;101294.94;107257;1265;60183;-84
2023/06/20 03:54:55;;;;;;;;;;;;;;;20.58;71.43;101295.61;107120;1260;74103;-83
2023/06/20 03:57:21;;;;;;;;;;;;;;;20.63;71.36;101297.56;107021;1260;125852;-84
2023/06/20 03:59:47;;;;;;;;;;;;;;;20.68;71.07;101300.73;107213;1260;62172;-83
2023/06/20 04:02:14;;;;;;;;;;;;;;;20.71;71.00;101297.32;107299;1260;126061;-83
2023/06/20 04:04:40;;;;;;;;;;;;;;;20.76;70.96;101304.58;108091;1260;62062;-83
2023/06/20 04:07:08;;;;;;;;;;;;;;;20.84;70.93;101300.25;107302;1266;125626;-81
2023/06/20 04:09:34;;;;;;;;;;;;;;;20.94;70.91;101300.86;107475;1260;67324;-83
2023/06/20 04:12:00;;;;;;;;;;;;;;;21.05;70.88;101300.05;107666;1261;60899;-82
2023/06/20 04:14:26;;;;;;;;;;;;;;;21.13;70.85;101299.96;107420;1260;125662;-81
2023/06/20 04:16:53;;;;;;;;;;;;;;;21.20;70.68;101299.54;107329;1261;62250;-83
2023/06/20 04:19:19;;;;;;;;;;;;;;;21.24;70.30;101298.80;107435;1266;125217;-82
2023/06/20 04:21:45;;;;;;;;;;;;;;;21.26;70.41;101296.27;107493;1260;60199;-80
2023/06/20 04:24:11;;;;;;;;;;;;;;;21.21;70.24;101302.39;107759;1260;62476;-81
2023/06/20 04:26:44;;;;;;;;;;;;;;;21.10;70.15;101304.45;107478;1261;125234;-81
2023/06/20 04:29:12;;;;;;;;;;;;;;;21.06;70.25;101305.58;107603;1263;60715;-81
2023/06/20 04:31:38;;;;;;;;;;;;;;;21.04;70.39;101309.16;107246;1260;125392;-80
2023/06/20 04:34:04;;;;;;;;;;;;;;;21.05;70.40;101318.44;107636;1260;61916;-81
2023/06/20 04:36:34;;;;;;;;;;;;;;;20.96;70.11;101324.05;107201;1267;60847;-82
2023/06/20 04:39:00;;;;;;;;;;;;;;;20.83;70.14;101327.36;107338;1260;125294;-82
2023/06/20 04:41:29;;;;;;;;;;;;;;;20.72;70.32;101324.77;107364;1260;62070;-87
2023/06/20 04:44:00;;;;;;;;;;;;;;;20.70;70.61;101324.08;107405;1260;125435;-81
2023/06/20 04:46:26;;;;;;;;;;;;;;;20.72;70.46;101326.73;107576;1260;65746;-83
2023/06/20 04:48:53;;;;;;;;;;;;;;;20.74;70.76;101326.55;107542;1261;62657;-83
2023/06/20 04:51:20;;;;;;;;;;;;;;;20.81;70.82;101327.73;107278;1262;125820;-85
2023/06/20 04:53:52;;;;;;;;;;;;;;;20.92;70.81;101327.28;107505;1263;60357;-85
2023/06/20 04:56:27;;;;;;;;;;;;;;;21.02;70.70;101325.23;106947;1261;125373;-87
2023/06/20 04:58:53;;;;;;;;;;;;;;;21.09;70.64;101321.06;107044;1261;65279;-82
2023/06/20 05:01:20;;;;;;;;;;;;;;;21.17;70.62;101317.77;107086;1261;126134;-81
2023/06/20 05:03:46;;;;;;;;;;;;;;;21.23;70.55;101317.19;107519;1260;62074;-81
2023/06/20 05:06:17;;;;;;;;;;;;;;;21.37;70.86;101320.79;107766;1260;62118;-83
2023/06/20 05:08:46;;;;;;;;;;;;;;;21.60;70.77;101318.61;107436;1260;124929;-82
2023/06/20 05:11:13;;;;;;;;;;;;;;;21.90;70.61;101322.17;107126;1260;65755;-83
2023/06/20 05:13:41;;;;;;;;;;;;;;;22.23;70.54;101319.05;107255;1261;125604;-83
2023/06/20 05:16:07;;;;;;;;;;;;;;;23.04;70.86;101322.29;107217;1260;62039;-85
2023/06/20 05:18:35;;;;;;;;;;;;;;;24.04;70.69;101323.36;107022;1261;60178;-83
2023/06/20 05:21:02;;;;;;;;;;;;;;;26.21;70.61;101320.94;107246;1263;124744;-83
2023/06/20 05:23:29;;;;;;;;;;;;;;;28.41;68.13;101321.14;107182;1260;61347;-84
2023/06/20 05:25:55;;;;;;;;;;;;;;;30.41;65.56;101317.73;106970;1260;124580;-85
2023/06/20 05:28:23;;;;;;;;;;;;;;;32.16;62.01;101322.23;107237;1262;62098;-84
2023/06/20 05:30:49;;;;;;;;;;;;;;;33.25;58.36;101323.52;107190;1261;62150;-84
2023/06/20 05:33:16;;;;;;;;;;;;;;;34.20;56.54;101322.48;106785;1261;124760;-83
2023/06/20 05:35:44;;;;;;;;;;;;;;;35.32;54.36;101324.09;107005;1261;61965;-83
2023/06/20 05:38:11;;;;;;;;;;;;;;;36.17;52.05;101321.69;107093;1260;125627;-83
2023/06/20 05:40:37;;;;;;;;;;;;;;;36.48;49.40;101323.77;107091;1260;60366;-85
2023/06/20 05:43:04;;;;;;;;;;;;;;;35.95;47.50;101326.92;107015;1260;125294;-83
2023/06/20 05:45:30;;;;;;;;;;;;;;;34.74;46.52;101329.16;107361;1262;61920;-83
2023/06/20 05:47:58;;;;;;;;;;;;;;;33.45;46.35;101330.50;107690;1260;63042;-83
2023/06/20 05:50:27;;;;;;;;;;;;;;;32.27;46.77;101329.28;107315;1260;124709;-83
2023/06/20 05:52:55;;;;;;;;;;;;;;;31.29;47.36;101328.58;106879;1267;62052;-83
2023/06/20 05:55:21;;;;;;;;;;;;;;;30.48;47.94;101326.15;107038;1264;124731;-85
2023/06/20 05:57:54;;;;;;;;;;;;;;;29.91;48.67;101325.64;107440;1260;60412;-85
2023/06/20 06:00:21;;;;;;;;;;;;;;;29.56;49.40;101326.82;107492;1263;62170;-84
2023/06/20 06:02:49;;;;;;;;;;;;;;;29.24;49.52;101332.39;106929;1261;124776;-84
2023/06/20 06:05:15;;;;;;;;;;;;;;;28.97;49.94;101338.05;106966;1260;62037;-84
2023/06/20 06:07:41;;;;;;;;;;;;;;;28.76;50.28;101343.45;107360;1263;125207;-84
2023/06/20 06:10:10;;;;;;;;;;;;;;;28.54;50.54;101342.91;107303;1260;60430;-83
2023/06/20 06:12:36;;;;;;;;;;;;;;;28.22;50.61;101345.63;106934;1261;65548;-83
2023/06/20 06:15:03;;;;;;;;;;;;;;;27.87;50.62;101344.59;106987;1260;124737;-84
2023/06/20 06:17:32;;;;;;;;;;;;;;;27.71;51.40;101342.63;107128;1262;62160;-83
2023/06/20 06:19:58;;;;;;;;;;;;;;;27.67;51.54;101340.45;107108;1261;124793;-83
2023/06/20 06:22:24;;;;;;;;;;;;;;;27.58;51.76;101346.02;107397;1262;61800;-83
2023/06/20 06:24:53;;;;;;;;;;;;;;;27.52;51.65;101341.90;107166;1260;62162;-83
2023/06/20 06:27:19;;;;;;;;;;;;;;;27.49;51.78;101342.57;107591;1261;124981;-83
2023/06/20 06:29:46;;;;;;;;;;;;;;;27.29;51.79;101342.89;107715;1261;60599;-84
2023/06/20 06:32:19;;;;;;;;;;;;;;;27.16;52.20;101342.77;107141;1262;124590;-84
2023/06/20 06:34:48;;;;;;;;;;;;;;;27.19;52.40;101344.33;107273;1260;75410;-83
2023/06/20 06:37:14;;;;;;;;;;;;;;;27.26;52.53;101341.55;107190;1261;126206;-84
2023/06/20 06:39:41;;;;;;;;;;;;;;;27.24;52.32;101341.45;107599;1260;61545;-83
2023/06/20 06:42:07;;;;;;;;;;;;;;;27.17;52.22;101339.33;107242;1260;62082;-83
2023/06/20 06:44:34;;;;;;;;;;;;;;;27.09;52.02;101341.04;107104;1261;124606;-83
2023/06/20 06:47:04;;;;;;;;;;;;;;;26.94;52.21;101339.57;107130;1266;74307;-85
2023/06/20 06:49:31;;;;;;;;;;;;;;;26.85;52.40;101344.90;106941;1260;125142;-84
2023/06/20 06:51:59;;;;;;;;;;;;;;;26.69;52.62;101345.25;107078;1265;71543;-84
2023/06/20 06:54:25;;;;;;;;;;;;;;;26.60;52.72;101347.70;107362;1260;61715;-84
2023/06/20 06:56:58;;;;;;;;;;;;;;;26.54;52.86;101348.96;107268;1259;126467;-83
2023/06/20 06:59:24;;;;;;;;;;;;;;;26.52;52.94;101351.16;107388;1260;74263;-83
2023/06/20 07:01:53;;;;;;;;;;;;;;;26.40;52.99;101345.80;107091;1262;124616;-83
2023/06/20 07:04:19;;;;;;;;;;;;;;;26.34;53.56;101345.27;107122;1264;71312;-83
2023/06/20 07:06:48;;;;;;;;;;;;;;;26.30;53.40;101341.45;107038;1265;61336;-81
2023/06/20 07:09:15;;;;;;;;;;;;;;;26.26;53.63;101343.36;107327;1262;124656;-83
2023/06/20 07:11:47;;;;;;;;;;;;;;;26.17;53.70;101349.57;107232;1261;74004;-84
2023/06/20 07:14:15;;;;;;;;;;;;;;;26.01;53.97;101351.85;107451;1260;125039;-84
2023/06/20 07:16:42;;;;;;;;;;;;;;;25.82;54.17;101357.77;107378;1260;72434;-83
2023/06/20 07:19:10;;;;;;;;;;;;;;;25.64;54.64;101355.60;107295;1262;124766;-83
2023/06/20 07:21:36;;;;;;;;;;;;;;;25.62;54.58;101359.59;107663;1261;60360;-83
2023/06/20 07:24:04;;;;;;;;;;;;;;;25.58;54.96;101356.09;107677;1261;60407;-83
2023/06/20 07:26:31;;;;;;;;;;;;;;;25.63;54.56;101358.48;107497;1261;125044;-83
2023/06/20 07:28:57;;;;;;;;;;;;;;;25.56;54.79;101353.45;107594;1262;73298;-83
2023/06/20 07:31:25;;;;;;;;;;;;;;;25.48;54.81;101352.25;107623;1263;125388;-83
2023/06/20 07:33:52;;;;;;;;;;;;;;;25.39;54.92;101353.02;107448;1261;60094;-84
2023/06/20 07:36:24;;;;;;;;;;;;;;;25.37;54.97;101352.19;107267;1265;75274;-84
2023/06/20 07:38:50;;;;;;;;;;;;;;;25.39;54.82;101353.91;107226;1260;124733;-84
2023/06/20 07:41:17;;;;;;;;;;;;;;;25.43;54.58;101354.36;107239;1262;62141;-84
2023/06/20 07:43:43;;;;;;;;;;;;;;;25.37;54.35;101354.16;107214;1264;124595;-84
2023/06/20 07:46:09;;;;;;;;;;;;;;;25.36;54.39;101351.85;108560;1262;59995;-84
2023/06/20 07:48:36;;;;;;;;;;;;;;;25.39;54.53;101351.76;107819;1261;60748;-85
2023/06/20 07:51:03;;;;;;;;;;;;;;;25.38;54.50;101349.82;107459;1261;125412;-84
2023/06/20 07:53:29;;;;;;;;;;;;;;;25.43;54.50;101352.37;107367;1261;72623;-84
2023/06/20 07:55:59;;;;;;;;;;;;;;;25.54;54.41;101351.36;107060;1262;125103;-85
2023/06/20 07:58:26;;;;;;;;;;;;;;;25.68;54.25;101349.71;107397;1264;61792;-83
2023/06/20 08:00:56;;;;;;;;;;;;;;;25.86;54.17;101345.96;107316;1260;60427;-84
2023/06/20 08:03:24;;;;;;;;;;;;;;;26.00;53.77;101346.67;107325;1261;125027;-83
2023/06/20 08:05:55;;;;;;;;;;;;;;;26.17;53.82;101347.21;107154;1262;71480;-83
2023/06/20 08:08:22;;;;;;;;;;;;;;;26.29;53.55;101343.26;107100;1262;124654;-83
2023/06/20 08:10:51;;;;;;;;;;;;;;;26.35;53.16;101340.55;106968;1261;63083;-83
2023/06/20 08:13:19;;;;;;;;;;;;;;;26.38;53.13;101340.83;107194;1262;125083;-84
2023/06/20 08:15:52;;;;;;;;;;;;;;;26.44;52.90;101342.82;107328;1261;65767;-83
2023/06/20 08:18:19;;;;;;;;;;;;;;;26.52;52.86;101346.13;107270;1261;71104;-83
2023/06/20 08:20:51;;;;;;;;;;;;;;;26.60;52.74;101347.52;107220;1265;124896;-84
2023/06/20 08:23:24;;;;;;;;;;;;;;;26.63;52.22;101341.87;107219;1261;60317;-83
2023/06/20 08:25:55;;;;;;;;;;;;;;;26.69;52.31;101344.55;107393;1261;125209;-84
2023/06/20 08:28:21;;;;;;;;;;;;;;;26.71;52.00;101346.29;107526;1262;66603;-83
2023/06/20 08:30:50;;;;;;;;;;;;;;;26.68;51.90;101344.75;107568;1261;73845;-84
2023/06/20 08:33:23;;;;;;;;;;;;;;;26.61;51.82;101345.34;107960;1261;124959;-84
2023/06/20 08:35:51;;;;;;;;;;;;;;;26.54;51.82;101347.52;107096;1261;62565;-84
2023/06/20 08:38:18;;;;;;;;;;;;;;;26.45;51.62;101355.20;107256;1260;124958;-85
2023/06/20 08:40:45;;;;;;;;;;;;;;;26.34;51.55;101352.83;107255;1261;62026;-83
2023/06/20 08:43:13;;;;;;;;;;;;;;;26.30;51.28;101351.15;107035;1261;125113;-84
2023/06/20 08:45:42;;;;;;;;;;;;;;;26.30;50.94;101353.31;107056;1261;62014;-83
2023/06/20 08:48:09;;;;;;;;;;;;;;;26.31;50.85;101351.50;107207;1261;61127;-83
2023/06/20 08:50:36;;;;;;;;;;;;;;;26.33;50.93;101349.44;107182;1260;124605;-83
2023/06/20 08:53:04;;;;;;;;;;;;;;;26.24;50.49;101362.14;107274;1267;67687;-84
2023/06/20 08:55:30;;;;;;;;;;;;;;;26.19;50.36;101359.05;107285;1260;125339;-83
2023/06/20 08:57:57;;;;;;;;;;;;;;;26.21;50.97;101359.35;106985;1261;62139;-83
2023/06/20 09:00:23;;;;;;;;;;;;;;;26.18;51.07;101357.10;107179;1261;243417;-85
2023/06/20 09:02:50;;;;;;;;;;;;;;;26.21;51.09;101355.95;107070;1261;124802;-85
2023/06/20 09:05:17;;;;;;;;;;;;;;;26.22;51.04;101355.16;107143;1262;61308;-83
2023/06/20 09:07:43;;;;;;;;;;;;;;;26.22;50.83;101355.72;106964;1262;125152;-84
2023/06/20 09:10:10;;;;;;;;;;;;;;;26.24;50.98;101352.96;107251;1261;61773;-84
2023/06/20 09:12:52;;;;;;;;;;;;;;;26.17;50.45;101351.73;107103;1261;62215;-83
2023/06/20 09:15:22;;;;;;;;;;;;;;;26.11;50.46;101351.00;107264;1263;125229;-83
2023/06/20 09:17:55;;;;;;;;;;;;;;;26.15;50.66;101350.19;107433;1260;67065;-83
2023/06/20 09:20:25;;;;;;;;;;;;;;;26.19;50.58;101346.98;107221;1262;124672;-84
2023/06/20 09:22:51;;;;;;;;;;;;;;;26.23;50.52;101349.02;107056;1261;61943;-83
2023/06/20 09:25:21;;;;;;;;;;;;;;;26.25;50.72;101352.56;107271;1264;124711;-83
2023/06/20 09:27:48;;;;;;;;;;;;;;;26.30;50.73;101349.89;107774;1262;75337;-83
2023/06/20 09:30:14;;;;;;;;;;;;;;;26.37;50.69;101348.95;107512;1261;65655;-83
2023/06/20 09:32:41;;;;;;;;;;;;;;;26.45;50.60;101350.88;107004;1262;125010;-83
2023/06/20 09:35:09;;;;;;;;;;;;;;;26.42;50.41;101355.27;107235;1261;62288;-84
2023/06/20 09:37:46;;;;;;;;;;;;;;;26.41;50.41;101350.27;107191;1262;125391;-83
2023/06/20 09:40:14;;;;;;;;;;;;;;;26.46;50.86;101351.75;107211;1261;75833;-83
2023/06/20 09:42:44;;;;;;;;;;;;;;;26.53;51.19;101351.50;107155;1261;66883;-85
2023/06/20 09:45:11;;;;;;;;;;;;;;;26.57;51.08;101353.70;106905;1265;125023;-83
2023/06/20 09:47:39;;;;;;;;;;;;;;;26.57;51.17;101358.41;107314;1266;61933;-83
2023/06/20 09:50:06;;;;;;;;;;;;;;;26.59;51.14;101359.98;107509;1262;124862;-84
2023/06/20 09:52:42;;;;;;;;;;;;;;;26.57;50.96;101360.55;107565;1260;75493;-83
2023/06/20 09:55:14;;;;;;;;;;;;;;;26.53;50.87;101358.70;107291;1261;124782;-84
2023/06/20 09:57:51;;;;;;;;;;;;;;;26.48;50.86;101354.36;107008;1267;71152;-83
2023/06/20 10:00:17;;;;;;;;;;;;;;;26.44;50.73;101359.55;107103;1261;61285;-83
2023/06/20 10:02:44;;;;;;;;;;;;;;;26.43;50.72;101355.06;107038;1262;125097;-83
2023/06/20 10:05:11;;;;;;;;;;;;;;;26.47;50.69;101356.54;107150;1261;75557;-83
2023/06/20 10:07:38;;;;;;;;;;;;;;;26.45;50.44;101354.30;106907;1260;124763;-85
2023/06/20 10:10:04;;;;;;;;;;;;;;;26.39;50.37;101354.48;106966;1261;71386;-83
2023/06/20 10:12:41;;;;;;;;;;;;;;;26.37;50.38;101357.22;107280;1262;61127;-83
2023/06/20 10:15:09;;;;;;;;;;;;;;;26.34;50.37;101360.92;107426;1262;124665;-83
2023/06/20 10:17:39;;;;;;;;;;;;;;;26.31;50.38;101361.18;107417;1260;74435;-84
2023/06/20 10:20:07;;;;;;;;;;;;;;;26.28;50.34;101357.33;107001;1260;124782;-83
2023/06/20 10:22:34;;;;;;;;;;;;;;;26.30;50.60;101355.13;108793;1261;72723;-83
2023/06/20 10:25:02;;;;;;;;;;;;;;;26.34;50.62;101353.90;108648;1261;59761;-83
2023/06/20 10:27:29;;;;;;;;;;;;;;;26.33;50.48;101349.64;108820;1260;60238;-83
2023/06/20 10:29:55;;;;;;;;;;;;;;;26.34;50.74;101346.71;107561;1262;61254;-83
2023/06/20 10:32:23;;;;;;;;;;;;;;;26.34;50.71;101350.66;107132;1261;124468;-83
2023/06/20 10:34:52;;;;;;;;;;;;;;;26.26;50.93;101344.44;107142;1260;71936;-84
2023/06/20 10:37:38;;;;;;;;;;;;;;;26.29;51.44;101341.64;106916;1261;124811;-84
2023/06/20 10:40:09;;;;;;;;;;;;;;;26.41;51.53;101346.86;107133;1261;60662;-84
2023/06/20 10:42:39;;;;;;;;;;;;;;;26.41;51.49;101353.33;107215;1265;75311;-84
2023/06/20 10:45:22;;;;;;;;;;;;;;;26.42;51.65;101356.73;107108;1262;125134;-83
2023/06/20 10:47:50;;;;;;;;;;;;;;;26.39;51.65;101354.12;107349;1261;72414;-82
2023/06/20 10:50:16;;;;;;;;;;;;;;;26.34;51.69;101355.87;107079;1260;125187;-83
2023/06/20 10:52:44;;;;;;;;;;;;;;;26.29;51.93;101350.65;107145;1266;62259;-83
2023/06/20 10:55:15;;;;;;;;;;;;;;;26.29;52.07;101353.36;107104;1262;124919;-83
2023/06/20 10:57:47;;;;;;;;;;;;;;;26.28;52.21;101349.58;106964;1262;65308;-83
2023/06/20 11:00:18;;;;;;;;;;;;;;;26.28;52.04;101350.67;107087;1266;72546;-84
2023/06/20 11:02:54;;;;;;;;;;;;;;;26.27;52.02;101350.53;107425;1261;124539;-84
2023/06/20 11:05:26;;;;;;;;;;;;;;;26.27;52.26;101347.46;106971;1261;61942;-83
2023/06/20 11:07:53;;;;;;;;;;;;;;;26.23;52.24;101350.28;107030;1260;124615;-84
2023/06/20 11:10:26;;;;;;;;;;;;;;;26.18;52.31;101355.98;107130;1262;66153;-84
2023/06/20 11:13:05;;;;;;;;;;;;;;;26.11;52.34;101354.61;107145;1261;73810;-84
2023/06/20 11:15:33;;;;;;;;;;;;;;;26.08;52.38;101351.81;107404;1260;60481;-84
2023/06/20 11:18:10;;;;;;;;;;;;;;;26.09;52.38;101350.89;108379;1261;61787;-84
2023/06/20 11:21:01;;;;;;;;;;;;;;;26.06;52.43;101347.73;106617;1266;124458;-84
2023/06/20 11:23:32;;;;;;;;;;;;;;;26.03;52.50;101346.39;106949;1260;66054;-85
2023/06/20 11:25:58;;;;;;;;;;;;;;;26.04;52.61;101343.14;107035;1262;124543;-85
2023/06/20 11:28:26;;;;;;;;;;;;;;;26.07;52.58;101345.90;107072;1264;62037;-83
2023/06/20 11:30:52;;;;;;;;;;;;;;;26.06;52.45;101342.35;107220;1261;61976;-85
2023/06/20 11:33:18;;;;;;;;;;;;;;;26.10;52.57;101341.69;107126;1264;124875;-83
2023/06/20 11:35:53;;;;;;;;;;;;;;;26.13;52.33;101339.64;107246;1262;61997;-84
2023/06/20 11:38:26;;;;;;;;;;;;;;;26.16;52.31;101338.45;107321;1260;124576;-83
2023/06/20 11:40:59;;;;;;;;;;;;;;;26.11;52.28;101341.66;107119;1260;60122;-84
2023/06/20 11:43:27;;;;;;;;;;;;;;;26.11;52.17;101343.27;107025;1263;124704;-85
2023/06/20 11:46:02;;;;;;;;;;;;;;;26.11;52.08;101337.86;106990;1261;74286;-84
2023/06/20 11:48:28;;;;;;;;;;;;;;;26.13;51.94;101335.65;107065;1263;66856;-84
2023/06/20 11:50:58;;;;;;;;;;;;;;;26.15;52.07;101340.63;106972;1263;124695;-85
2023/06/20 11:53:25;;;;;;;;;;;;;;;26.18;51.97;101339.99;107321;1261;61365;-85
2023/06/20 11:55:55;;;;;;;;;;;;;;;26.20;51.97;101338.88;107049;1260;125321;-86
2023/06/20 11:58:22;;;;;;;;;;;;;;;26.24;52.09;101332.82;107165;1261;74308;-85
2023/06/20 12:01:24;;;;;;;;;;;;;;;26.27;51.95;101332.35;108552;1260;67597;-85
2023/06/20 12:04:06;;;;;;;;;;;;;;;26.30;51.63;101339.66;106544;1273;71591;-84
2023/06/20 12:06:37;;;;;;;;;;;;;;;26.30;51.88;101336.92;106568;1268;62024;-85
2023/06/20 12:09:09;;;;;;;;;;;;;;;26.33;51.78;101336.11;106574;1268;124655;-85
2023/06/20 12:11:44;;;;;;;;;;;;;;;26.42;51.67;101338.02;106428;1268;75197;-84
2023/06/20 12:14:19;;;;;;;;;;;;;;;26.42;51.53;101338.18;106821;1270;125299;-85
2023/06/20 12:16:48;;;;;;;;;;;;;;;26.45;51.38;101345.28;106418;1268;73068;-85
2023/06/20 12:19:21;;;;;;;;;;;;;;;26.44;51.19;101342.45;106395;1271;124854;-85
2023/06/20 12:21:49;;;;;;;;;;;;;;;26.42;51.23;101340.15;107033;1268;61925;-85
2023/06/20 12:24:15;;;;;;;;;;;;;;;26.41;51.05;101335.52;106920;1268;74062;-82
2023/06/20 12:26:43;;;;;;;;;;;;;;;26.46;51.13;101334.80;106516;1268;124472;-82
2023/06/20 12:29:11;;;;;;;;;;;;;;;26.49;51.01;101332.39;106653;1268;72595;-84